createdAt,value
2023-02-21T00:01:59.688Z,21.60
2023-02-21T00:04:45.410Z,21.08
2023-02-21T00:07:30.456Z,17.27
2023-02-21T00:10:15.843Z,19.55
2023-02-21T00:13:01.450Z,16.27
2023-02-21T00:15:46.736Z,15.07
2023-02-21T00:18:32.388Z,20.23
2023-02-21T00:21:17.762Z,15.48
2023-02-21T00:24:03.375Z,19.45
2023-02-21T00:26:48.895Z,23.55
2023-02-21T00:29:34.277Z,19.83
2023-02-21T00:32:19.638Z,19.88
2023-02-21T00:35:05.047Z,22.55
2023-02-21T00:37:50.449Z,19.13
2023-02-21T00:40:36.003Z,20.92
2023-02-21T00:43:21.726Z,25.60
2023-02-21T00:46:07.222Z,27.95
2023-02-21T00:48:52.594Z,37.95
2023-02-21T00:51:38.023Z,47.72
2023-02-21T00:54:23.341Z,46.63
2023-02-21T00:57:08.837Z,41.83
2023-02-21T00:59:54.391Z,50.92
2023-02-21T01:02:39.542Z,43.08
2023-02-21T01:05:25.458Z,56.70
2023-02-21T01:08:10.614Z,44.65
2023-02-21T01:10:59.365Z,50.92
2023-02-21T01:13:44.731Z,41.00
2023-02-21T01:16:29.952Z,45.00
2023-02-21T01:19:17.171Z,45.53
2023-02-21T01:22:02.877Z,35.63
2023-02-21T01:24:48.518Z,37.55
2023-02-21T01:27:33.773Z,41.38
2023-02-21T01:30:19.385Z,45.33
2023-02-21T01:33:04.857Z,47.30
2023-02-21T01:35:50.259Z,44.28
2023-02-21T01:38:35.484Z,52.85
2023-02-21T01:41:21.013Z,56.30
2023-02-21T01:44:25.071Z,51.67
2023-02-21T01:47:12.267Z,58.10
2023-02-21T01:49:59.725Z,57.55
2023-02-21T01:52:45.723Z,45.85
2023-02-21T01:55:31.094Z,36.70
2023-02-21T01:58:16.505Z,43.53
2023-02-21T02:01:03.403Z,43.78
2023-02-21T02:03:50.090Z,44.80
2023-02-21T02:06:36.484Z,39.15
2023-02-21T02:09:36.338Z,37.47
2023-02-21T02:12:25.607Z,32.88
2023-02-21T02:15:10.941Z,35.90
2023-02-21T02:18:07.188Z,36.08
2023-02-21T02:21:02.623Z,34.20
2023-02-21T02:24:00.402Z,31.55
2023-02-21T02:26:29.948Z,30.08
2023-02-21T02:29:26.082Z,28.65
2023-02-21T02:32:32.119Z,28.83
2023-02-21T02:35:09.894Z,27.73
2023-02-21T02:38:03.558Z,28.83
2023-02-21T02:40:39.836Z,27.90
2023-02-21T02:43:13.081Z,29.23
2023-02-21T02:45:49.015Z,24.98
2023-02-21T02:48:22.284Z,25.65
2023-02-21T02:50:51.197Z,26.25
2023-02-21T02:53:23.028Z,29.00
2023-02-21T02:55:58.141Z,28.30
2023-02-21T02:58:30.379Z,27.70
2023-02-21T03:03:52.658Z,22.77
2023-02-21T03:07:03.082Z,25.00
2023-02-21T03:09:48.764Z,27.00
2023-02-21T03:12:28.884Z,31.13
2023-02-21T03:15:05.403Z,33.88
2023-02-21T03:17:37.039Z,36.65
2023-02-21T03:20:06.825Z,49.13
2023-02-21T03:22:34.826Z,46.08
2023-02-21T03:25:03.819Z,34.78
2023-02-21T03:27:32.934Z,43.55
2023-02-21T03:30:09.365Z,40.67
2023-02-21T03:32:40.135Z,39.45
2023-02-21T03:35:08.003Z,36.80
2023-02-21T03:37:55.050Z,41.50
2023-02-21T03:40:32.614Z,40.53
2023-02-21T03:43:03.753Z,37.50
2023-02-21T03:45:35.265Z,31.67
2023-02-21T03:48:06.952Z,23.42
2023-02-21T03:50:35.693Z,29.05
2023-02-21T03:53:02.636Z,31.63
2023-02-21T03:55:31.364Z,42.67
2023-02-21T03:58:00.750Z,40.60
2023-02-21T04:00:28.677Z,40.45
2023-02-21T04:02:56.576Z,39.85
2023-02-21T04:05:46.028Z,32.92
2023-02-21T04:08:12.948Z,31.67
2023-02-21T04:10:51.280Z,34.97
2023-02-21T04:13:21.038Z,32.35
2023-02-21T04:15:49.679Z,29.45
2023-02-21T04:18:17.079Z,34.90
2023-02-21T04:20:46.423Z,28.05
2023-02-21T04:23:19.022Z,32.25
2023-02-21T04:25:46.268Z,23.52
2023-02-21T04:30:44.229Z,24.58
2023-02-21T04:33:11.352Z,26.30
2023-02-21T04:35:38.220Z,21.70
2023-02-21T04:38:12.990Z,20.70
2023-02-21T04:40:40.138Z,19.42
2023-02-21T04:43:07.115Z,15.93
2023-02-21T04:45:33.961Z,15.32
2023-02-21T04:48:00.704Z,13.80
2023-02-21T04:50:28.829Z,17.27
2023-02-21T04:52:55.527Z,18.20
2023-02-21T04:55:22.325Z,17.65
2023-02-21T04:57:49.656Z,16.85
2023-02-21T05:00:16.868Z,15.75
2023-02-21T05:02:44.510Z,13.80
2023-02-21T05:05:12.176Z,14.68
2023-02-21T05:07:41.095Z,14.23
2023-02-21T05:10:09.764Z,13.90
2023-02-21T05:12:40.114Z,13.50
2023-02-21T05:15:08.557Z,10.73
2023-02-21T05:17:35.419Z,12.45
2023-02-21T05:20:02.646Z,11.77
2023-02-21T05:22:29.496Z,10.20
2023-02-21T05:24:56.357Z,11.32
2023-02-21T05:27:24.942Z,10.10
2023-02-21T05:29:53.602Z,12.30
2023-02-21T05:32:21.950Z,11.02
2023-02-21T05:34:48.776Z,9.50
2023-02-21T05:37:17.561Z,7.90
2023-02-21T05:39:44.564Z,10.45
2023-02-21T05:42:11.328Z,10.57
2023-02-21T05:44:38.063Z,8.70
2023-02-21T05:47:07.216Z,12.00
2023-02-21T05:49:34.410Z,8.32
2023-02-21T05:52:01.117Z,14.35
2023-02-21T05:54:27.946Z,10.40
2023-02-21T05:56:54.714Z,11.77
2023-02-21T05:59:21.591Z,13.05
2023-02-21T06:01:49.356Z,10.30
2023-02-21T06:04:17.281Z,9.57
2023-02-21T06:06:44.911Z,8.60
2023-02-21T06:09:11.824Z,10.57
2023-02-21T06:11:40.481Z,12.07
2023-02-21T06:14:14.172Z,14.00
2023-02-21T06:16:41.003Z,14.60
2023-02-21T06:19:09.188Z,14.50
2023-02-21T06:21:36.342Z,12.40
2023-02-21T06:24:04.416Z,17.58
2023-02-21T06:26:31.216Z,20.90
2023-02-21T06:28:58.095Z,16.95
2023-02-21T06:31:25.437Z,19.23
2023-02-21T06:33:53.699Z,13.05
2023-02-21T06:36:24.340Z,11.63
2023-02-21T06:38:53.518Z,9.95
2023-02-21T06:41:28.824Z,9.18
2023-02-21T06:43:57.490Z,9.45
2023-02-21T06:46:27.119Z,12.68
2023-02-21T06:48:54.029Z,11.07
2023-02-21T06:51:20.935Z,12.48
2023-02-21T06:53:50.275Z,11.13
2023-02-21T06:56:17.060Z,10.20
2023-02-21T06:58:43.876Z,12.02
2023-02-21T07:01:10.650Z,11.13
2023-02-21T07:03:43.372Z,11.10
2023-02-21T07:06:11.149Z,9.60
2023-02-21T07:08:37.954Z,10.27
2023-02-21T07:11:05.905Z,13.07
2023-02-21T07:13:33.537Z,21.58
2023-02-21T07:16:02.254Z,25.80
2023-02-21T07:18:29.185Z,16.75
2023-02-21T07:20:55.934Z,15.82
2023-02-21T07:23:22.682Z,13.43
2023-02-21T07:25:49.657Z,13.98
2023-02-21T07:28:17.641Z,15.88
2023-02-21T07:30:44.458Z,15.45
2023-02-21T07:33:11.240Z,20.75
2023-02-21T07:35:38.063Z,13.20
2023-02-21T07:38:04.825Z,17.17
2023-02-21T07:40:31.840Z,14.52
2023-02-21T07:42:58.509Z,14.20
2023-02-21T07:45:25.361Z,15.52
2023-02-21T07:47:53.466Z,14.35
2023-02-21T07:50:20.585Z,14.00
2023-02-21T07:52:47.390Z,16.83
2023-02-21T07:55:14.667Z,15.70
2023-02-21T07:57:41.374Z,18.45
2023-02-21T08:00:10.008Z,16.70
2023-02-21T08:02:48.859Z,18.00
2023-02-21T08:05:16.996Z,20.45
2023-02-21T08:07:44.128Z,24.27
2023-02-21T08:10:12.015Z,19.85
2023-02-21T08:12:38.837Z,21.42
2023-02-21T08:15:06.672Z,21.80
2023-02-21T08:17:33.492Z,21.77
2023-02-21T08:20:00.403Z,23.67
2023-02-21T08:22:27.235Z,28.08
2023-02-21T08:24:54.025Z,31.00
2023-02-21T08:27:20.766Z,30.88
2023-02-21T08:29:50.609Z,30.40
2023-02-21T08:32:19.005Z,30.92
2023-02-21T08:34:49.609Z,26.15
2023-02-21T08:37:20.353Z,32.67
2023-02-21T08:39:52.226Z,31.23
2023-02-21T08:42:20.540Z,30.63
2023-02-21T08:44:47.511Z,33.35
2023-02-21T08:47:15.831Z,39.33
2023-02-21T08:49:47.666Z,35.50
2023-02-21T08:52:19.487Z,37.58
2023-02-21T08:54:47.875Z,36.10
2023-02-21T08:57:14.695Z,30.73
2023-02-21T08:59:42.892Z,29.70
2023-02-21T09:02:25.650Z,29.50
2023-02-21T09:04:53.053Z,24.85
2023-02-21T09:07:21.921Z,23.77
2023-02-21T09:09:49.187Z,23.90
2023-02-21T09:12:17.142Z,23.30
2023-02-21T09:14:44.733Z,21.23
2023-02-21T09:17:13.771Z,18.48
2023-02-21T09:19:40.944Z,18.40
2023-02-21T09:22:11.174Z,18.13
2023-02-21T09:24:38.928Z,18.45
2023-02-21T09:27:06.850Z,21.23
2023-02-21T09:29:45.436Z,17.80
2023-02-21T09:32:14.289Z,20.25
2023-02-21T09:34:41.547Z,16.75
2023-02-21T09:37:08.978Z,15.18
2023-02-21T09:39:39.288Z,14.27
2023-02-21T09:42:06.519Z,15.60
2023-02-21T09:44:33.360Z,16.20
2023-02-21T09:47:06.242Z,17.77
2023-02-21T09:49:40.913Z,13.75
2023-02-21T09:52:22.579Z,21.58
2023-02-21T09:54:57.604Z,21.15
2023-02-21T09:57:24.990Z,16.73
2023-02-21T09:59:51.887Z,16.85
2023-02-21T10:02:54.506Z,17.45
2023-02-21T10:05:42.114Z,18.92
2023-02-21T10:08:38.565Z,17.85
2023-02-21T10:11:31.385Z,33.28
2023-02-21T10:14:03.995Z,29.27
2023-02-21T10:16:35.082Z,27.70
2023-02-21T10:19:26.211Z,25.23
2023-02-21T10:21:58.710Z,25.60
2023-02-21T10:24:27.294Z,24.38
2023-02-21T10:27:04.822Z,19.85
2023-02-21T10:29:52.716Z,27.00
2023-02-21T10:32:19.789Z,25.60
2023-02-21T10:34:48.257Z,66.45
2023-02-21T10:37:40.758Z,85.55
2023-02-21T10:40:27.374Z,64.63
2023-02-21T10:43:19.284Z,56.63
2023-02-21T10:45:54.459Z,35.08
2023-02-21T10:48:25.743Z,32.08
2023-02-21T10:51:15.039Z,22.00
2023-02-21T10:53:45.482Z,21.88
2023-02-21T10:56:15.365Z,18.95
2023-02-21T10:59:05.517Z,34.67
2023-02-21T11:01:32.364Z,30.58
2023-02-21T11:04:23.243Z,21.33
2023-02-21T11:06:54.686Z,14.90
2023-02-21T11:09:30.788Z,16.95
2023-02-21T11:12:15.831Z,16.90
2023-02-21T11:14:45.056Z,20.35
2023-02-21T11:17:23.796Z,25.60
2023-02-21T11:19:50.563Z,22.90
2023-02-21T11:22:39.368Z,22.52
2023-02-21T11:25:12.621Z,41.03
2023-02-21T11:27:39.818Z,20.58
2023-02-21T11:30:22.734Z,21.55
2023-02-21T11:32:54.160Z,18.10
2023-02-21T11:35:22.176Z,19.65
2023-02-21T11:37:56.317Z,13.73
2023-02-21T11:40:25.920Z,12.80
2023-02-21T11:43:39.229Z,14.88
2023-02-21T11:46:33.871Z,15.48
2023-02-21T11:49:12.782Z,18.98
2023-02-21T11:51:46.379Z,21.10
2023-02-21T11:54:13.393Z,18.73
2023-02-21T11:56:58.824Z,18.52
2023-02-21T12:00:08.594Z,19.92
2023-02-21T12:02:53.305Z,19.60
2023-02-21T12:05:47.919Z,16.63
2023-02-21T12:08:35.149Z,18.92
2023-02-21T12:11:10.742Z,17.05
2023-02-21T12:13:58.663Z,16.70
2023-02-21T12:17:07.203Z,19.17
2023-02-21T12:19:48.795Z,20.67
2023-02-21T12:22:33.512Z,21.80
2023-02-21T12:25:09.412Z,18.55
2023-02-21T12:27:45.436Z,22.42
2023-02-21T12:30:27.342Z,16.33
2023-02-21T12:33:18.748Z,17.80
2023-02-21T12:36:17.387Z,15.52
2023-02-21T12:39:02.805Z,19.38
2023-02-21T12:41:32.293Z,20.20
2023-02-21T12:44:17.570Z,15.80
2023-02-21T12:46:44.377Z,18.10
2023-02-21T12:49:27.031Z,19.08
2023-02-21T12:52:06.976Z,20.70
2023-02-21T12:54:44.877Z,25.23
2023-02-21T12:57:16.256Z,19.88
2023-02-21T12:59:43.039Z,19.48
2023-02-21T13:02:22.712Z,16.65
2023-02-21T13:05:05.387Z,15.88
2023-02-21T13:07:51.928Z,14.30
2023-02-21T13:10:24.747Z,17.38
2023-02-21T13:12:59.880Z,17.98
2023-02-21T13:15:29.912Z,15.57
2023-02-21T13:17:56.690Z,15.50
2023-02-21T13:20:26.046Z,16.95
2023-02-21T13:23:30.323Z,17.55
2023-02-21T13:26:31.183Z,15.93
2023-02-21T13:28:59.297Z,16.02
2023-02-21T13:31:29.066Z,19.25
2023-02-21T13:33:59.820Z,17.08
2023-02-21T13:36:31.168Z,17.15
2023-02-21T13:39:05.939Z,16.40
2023-02-21T13:41:42.529Z,17.02
2023-02-21T13:44:32.765Z,17.08
2023-02-21T13:47:02.884Z,14.93
2023-02-21T13:49:54.166Z,14.98
2023-02-21T13:52:23.803Z,12.43
2023-02-21T13:55:15.996Z,13.95
2023-02-21T13:58:00.519Z,15.98
2023-02-21T14:00:27.736Z,15.35
2023-02-21T14:03:05.604Z,14.88
2023-02-21T14:05:44.520Z,18.45
2023-02-21T14:08:24.849Z,16.42
2023-02-21T14:10:55.192Z,14.95
2023-02-21T14:13:38.188Z,17.52
2023-02-21T14:16:08.251Z,16.42
2023-02-21T14:18:39.748Z,12.82
2023-02-21T14:21:15.949Z,16.35
2023-02-21T14:23:50.244Z,15.27
2023-02-21T14:26:53.945Z,13.93
2023-02-21T14:29:41.873Z,16.35
2023-02-21T14:32:08.788Z,13.70
2023-02-21T14:34:47.262Z,19.55
2023-02-21T14:37:26.007Z,18.90
2023-02-21T14:40:14.745Z,18.40
2023-02-21T14:43:02.654Z,17.58
2023-02-21T14:46:08.451Z,19.15
2023-02-21T14:49:12.736Z,17.05
2023-02-21T14:52:22.987Z,13.70
2023-02-21T14:55:02.380Z,11.73
2023-02-21T14:57:50.822Z,13.68
2023-02-21T15:00:21.160Z,20.55
2023-02-21T15:03:25.446Z,28.52
2023-02-21T15:06:12.856Z,42.10
2023-02-21T15:08:43.066Z,33.42
2023-02-21T15:11:19.959Z,28.88
2023-02-21T15:13:46.948Z,23.80
2023-02-21T15:16:16.804Z,27.33
2023-02-21T15:19:01.515Z,60.00
2023-02-21T15:21:28.438Z,65.35
2023-02-21T15:24:13.057Z,34.45
2023-02-21T15:26:40.356Z,27.63
2023-02-21T15:29:09.077Z,18.25
2023-02-21T15:31:41.480Z,19.90
2023-02-21T15:34:20.701Z,43.72
2023-02-21T15:36:55.363Z,25.05
2023-02-21T15:39:29.351Z,19.90
2023-02-21T15:41:59.926Z,18.30
2023-02-21T15:44:32.699Z,15.60
2023-02-21T15:47:14.128Z,21.27
2023-02-21T15:49:52.856Z,14.98
2023-02-21T15:52:48.886Z,18.27
2023-02-21T15:55:26.950Z,16.08
2023-02-21T15:58:03.580Z,19.33
2023-02-21T16:00:41.460Z,16.20
2023-02-21T16:03:31.976Z,13.43
2023-02-21T16:06:23.646Z,13.90
2023-02-21T16:09:04.573Z,26.25
2023-02-21T16:11:42.820Z,28.05
2023-02-21T16:14:40.329Z,23.45
2023-02-21T16:17:13.105Z,18.88
2023-02-21T16:19:48.138Z,14.02
2023-02-21T16:22:53.755Z,16.25
2023-02-21T16:25:25.322Z,20.35
2023-02-21T16:28:02.116Z,17.33
2023-02-21T16:30:31.598Z,16.75
2023-02-21T16:33:04.102Z,15.25
2023-02-21T16:35:32.220Z,17.33
2023-02-21T16:38:00.487Z,14.48
2023-02-21T16:40:34.186Z,15.13
2023-02-21T16:43:02.276Z,14.98
2023-02-21T16:45:30.545Z,17.25
2023-02-21T16:48:02.720Z,13.75
2023-02-21T16:50:33.464Z,14.18
2023-02-21T16:53:01.177Z,15.23
2023-02-21T16:55:29.082Z,18.08
2023-02-21T16:57:59.457Z,15.07
2023-02-21T17:00:26.457Z,20.10
2023-02-21T17:02:53.741Z,17.17
2023-02-21T17:05:21.950Z,17.83
2023-02-21T17:07:53.595Z,14.23
2023-02-21T17:10:21.713Z,15.23
2023-02-21T17:12:48.657Z,14.95
2023-02-21T17:15:15.729Z,17.48
2023-02-21T17:17:44.462Z,15.18
2023-02-21T17:20:18.644Z,18.98
2023-02-21T17:22:45.743Z,18.77
2023-02-21T17:25:12.567Z,20.63
2023-02-21T17:27:39.920Z,21.50
2023-02-21T17:30:07.789Z,17.60
2023-02-21T17:32:34.658Z,18.15
2023-02-21T17:35:01.524Z,17.83
2023-02-21T17:37:28.511Z,22.65
2023-02-21T17:39:56.643Z,22.27
2023-02-21T17:42:24.993Z,26.98
2023-02-21T17:44:53.155Z,25.48
2023-02-21T17:47:21.969Z,23.35
2023-02-21T17:49:49.871Z,23.23
2023-02-21T17:52:17.961Z,20.60
2023-02-21T17:54:44.816Z,29.55
2023-02-21T17:57:12.227Z,21.40
2023-02-21T17:59:40.010Z,24.45
2023-02-21T18:02:08.240Z,20.50
2023-02-21T18:04:35.162Z,19.58
2023-02-21T18:07:02.135Z,21.08
2023-02-21T18:09:29.100Z,21.70
2023-02-21T18:11:59.268Z,22.77
2023-02-21T18:14:30.319Z,19.65
2023-02-21T18:16:58.336Z,20.30
2023-02-21T18:19:25.763Z,19.17
2023-02-21T18:21:53.904Z,18.88
2023-02-21T18:24:23.061Z,25.67
2023-02-21T18:26:50.087Z,23.85
2023-02-21T18:29:16.977Z,20.67
2023-02-21T18:31:43.877Z,21.88
2023-02-21T18:34:10.777Z,19.85
2023-02-21T18:36:41.050Z,21.58
2023-02-21T18:39:08.026Z,15.73
2023-02-21T18:41:35.324Z,17.23
2023-02-21T18:44:02.163Z,23.25
2023-02-21T18:46:31.389Z,16.33
2023-02-21T18:48:58.231Z,17.33
2023-02-21T18:51:25.063Z,19.65
2023-02-21T18:53:51.965Z,16.85
2023-02-21T18:56:20.615Z,18.98
2023-02-21T18:58:49.612Z,20.20
2023-02-21T19:01:19.384Z,23.27
2023-02-21T19:03:46.699Z,20.83
2023-02-21T19:06:16.374Z,25.15
2023-02-21T19:08:45.835Z,25.42
2023-02-21T19:11:15.841Z,27.00
2023-02-21T19:13:47.336Z,30.02
2023-02-21T19:16:15.293Z,29.13
2023-02-21T19:18:42.353Z,27.83
2023-02-21T19:21:12.782Z,27.00
2023-02-21T19:23:41.038Z,32.17
2023-02-21T19:26:08.571Z,26.15
2023-02-21T19:28:35.520Z,22.23
2023-02-21T19:31:04.501Z,19.10
2023-02-21T19:33:31.772Z,20.50
2023-02-21T19:35:58.626Z,17.58
2023-02-21T19:38:25.462Z,20.20
2023-02-21T19:40:52.358Z,18.95
2023-02-21T19:43:19.490Z,22.98
2023-02-21T19:45:46.473Z,25.95
2023-02-21T19:48:13.783Z,27.50
2023-02-21T19:50:41.360Z,21.50
2023-02-21T19:53:08.449Z,22.70
2023-02-21T19:55:35.380Z,23.48
2023-02-21T19:58:06.980Z,28.63
2023-02-21T20:00:34.823Z,36.67
2023-02-21T20:03:02.461Z,38.10
2023-02-21T20:05:29.399Z,39.13
2023-02-21T20:07:56.182Z,35.22
2023-02-21T20:10:25.521Z,31.95
2023-02-21T20:12:53.760Z,37.45
2023-02-21T20:15:20.643Z,40.13
2023-02-21T20:17:48.225Z,31.30
2023-02-21T20:20:16.073Z,30.48
2023-02-21T20:22:43.081Z,32.08
2023-02-21T20:25:10.181Z,38.35
2023-02-21T20:27:37.309Z,35.38
2023-02-21T20:30:05.863Z,43.42
2023-02-21T20:32:32.802Z,37.35
2023-02-21T20:34:59.822Z,37.80
2023-02-21T20:37:31.212Z,47.95
2023-02-21T20:39:59.021Z,41.28
2023-02-21T20:42:25.984Z,53.67
2023-02-21T20:44:52.919Z,48.53
2023-02-21T20:47:20.214Z,56.53
2023-02-21T20:49:47.834Z,49.03
2023-02-21T20:52:16.445Z,50.63
2023-02-21T20:54:43.822Z,41.75
2023-02-21T20:57:10.667Z,31.85
2023-02-21T20:59:39.678Z,30.20
2023-02-21T21:02:08.301Z,34.53
2023-02-21T21:04:43.064Z,32.55
2023-02-21T21:07:13.525Z,35.13
2023-02-21T21:09:41.481Z,28.33
2023-02-21T21:12:14.825Z,35.47
2023-02-21T21:14:44.593Z,39.83
2023-02-21T21:17:15.239Z,35.65
2023-02-21T21:19:44.400Z,35.47
2023-02-21T21:22:18.556Z,42.35
2023-02-21T21:24:46.143Z,31.65
2023-02-21T21:27:15.547Z,37.92
2023-02-21T21:29:45.102Z,43.58
2023-02-21T21:32:21.281Z,48.92
2023-02-21T21:34:54.995Z,42.25
2023-02-21T21:37:28.110Z,44.90
2023-02-21T21:39:56.379Z,54.90
2023-02-21T21:42:25.533Z,47.80
2023-02-21T21:44:54.184Z,52.33
2023-02-21T21:47:32.218Z,53.72
2023-02-21T21:50:02.522Z,45.95
2023-02-21T21:52:30.027Z,51.20
2023-02-21T21:54:58.448Z,45.55
2023-02-21T21:57:28.304Z,39.15
2023-02-21T21:59:55.587Z,45.47
2023-02-21T22:02:22.634Z,49.17
2023-02-21T22:04:52.624Z,43.47
2023-02-21T22:07:19.837Z,46.17
2023-02-21T22:09:47.443Z,45.05
2023-02-21T22:12:18.613Z,50.72
2023-02-21T22:14:45.468Z,43.53
2023-02-21T22:17:12.487Z,38.33
2023-02-21T22:19:39.307Z,32.50
2023-02-21T22:22:08.346Z,30.75
2023-02-21T22:24:35.688Z,31.33
2023-02-21T22:27:03.092Z,30.10
2023-02-21T22:29:30.001Z,34.90
2023-02-21T22:31:57.040Z,29.38
2023-02-21T22:34:24.035Z,25.23
2023-02-21T22:36:55.985Z,24.20
2023-02-21T22:39:24.136Z,27.25
2023-02-21T22:41:51.378Z,23.90
2023-02-21T22:44:18.914Z,26.45
2023-02-21T22:46:48.280Z,24.90
2023-02-21T22:49:16.856Z,26.75
2023-02-21T22:51:44.093Z,28.20
2023-02-21T22:54:14.634Z,18.73
2023-02-21T22:56:51.017Z,19.08
2023-02-21T22:59:20.420Z,20.95
2023-02-21T23:01:47.339Z,17.40
2023-02-21T23:04:25.771Z,19.40
2023-02-21T23:06:58.545Z,19.40
2023-02-21T23:09:27.321Z,21.10
2023-02-21T23:11:58.488Z,18.45
2023-02-21T23:14:27.084Z,20.80
2023-02-21T23:16:58.485Z,20.20
2023-02-21T23:19:27.861Z,18.33
2023-02-21T23:21:55.227Z,19.63
2023-02-21T23:24:22.549Z,20.05
2023-02-21T23:26:50.682Z,16.27
2023-02-21T23:29:20.759Z,20.50
2023-02-21T23:31:48.760Z,20.10
2023-02-21T23:34:16.176Z,17.85
2023-02-21T23:36:44.594Z,21.77
2023-02-21T23:39:15.176Z,18.70
2023-02-21T23:41:48.768Z,23.45
2023-02-21T23:44:16.742Z,21.38
2023-02-21T23:46:45.092Z,19.30
2023-02-21T23:49:16.021Z,22.73
2023-02-21T23:51:44.063Z,24.23
2023-02-21T23:54:11.876Z,28.10
2023-02-21T23:56:40.291Z,23.25
2023-02-21T23:59:07.764Z,26.40
